Tiempo atmosférico en la estación meteorológica de Aranda De Duero, Burgos (790 m.)



Fecha
DESCASC
Temp. máxima en grados centígrados (hora)
DESCASC
Temp. mínima en grados centígrados (hora)
DESCASC
Temp. media en grados centígrados
DESCASC
Racha de viento máxima en m/sg (hora)
DESCASC
Velocidad máxima media en intervalos de 10 minutos(hora)
DESCASC
Precipitaciones diarias en mm
DESCASC
Precipitaciones de 00:00 a 06:00 en mm
DESCASC
Precipitaciones de 06:00 a 12:00 en mm
DESCASC
Precipitaciones de 12:00 a 18:00 en mm
DESCASC
Precipitaciones de 18:00 a 24:00 en mm
DESCASC
16-06-2019 29.7 (17:00) 9.2 (01:40) 19.5 8.89 (08:30) 4.44 (08:30) 0 0 0 0 0
15-06-2019 24 (17:00) 8.9 (07:10) 16.4 7.22 (11:50) 2.5 (15:40) 0 0 0 0 0
14-06-2019 27.1 (17:10) 6.5 (06:30) 16.8 11.39 (18:10) 3.89 (19:10) 0 0 0 0 0
13-06-2019 27.7 (17:50) 4.1 (00:00) 15.9 15 (18:40) 6.11 (17:20) 0 0 0 0 0
12-06-2019 23 (17:40) 1.3 (00:00) 12.1 10 (17:00) 3.33 (17:00) 0 0 0 0 0
11-06-2019 17.2 (16:30) 7.8 (00:00) 12.5 12.22 (15:10) 5.56 (15:10) 0 0 0 0 0
10-06-2019 21.3 (16:10) 6.8 (00:00) 14 10.56 (00:10) 3.33 (00:30) 0 0 0 0 0
09-06-2019 25.9 (16:30) 7.4 (00:00) 16.6 10.28 (23:59) 4.72 (23:30) 0 0 0 0 0
08-06-2019 27.2 (16:20) 3.6 (00:00) 15.4 11.67 (15:40) 5.28 (10:20) 0 0 0 0 0
07-06-2019 19.4 (17:20) 7.3 (00:00) 13.3 12.78 (00:20) 5 (00:10) 1.4 1.4 0 0 0
06-06-2019 24 (17:30) 6.6 (00:00) 15.3 15.28 (19:30) 7.22 (20:00) 0 0 0 0 0
05-06-2019 19.9 (16:50) 8.4 (00:00) 14.1 10.83 (16:30) 3.33 (19:30) 7.8 1 6.8 0 0
04-06-2019 27.4 (16:30) 10.5 (00:00) 18.9 12.5 (14:10) 6.11 (14:10) 0 0 0 0 0
03-06-2019 32.6 (16:50) 10.9 (00:00) 21.7 12.78 (17:50) 5.28 (16:20) 0 0 0 0 0
02-06-2019 33.4 (16:10) 10.9 (00:00) 22.2 11.39 (16:10) 3.61 (15:40) 0 0 0 0 0
01-06-2019 34.4 (17:00) 12 (00:00) 23.2 5.83 (02:30) 2.78 (08:50) 0 0 0 0 0
31-05-2019 31.4 (17:40) 7.2 (00:00) 19.3 6.94 (11:20) 3.33 (11:20) 0 0 0 0 0
30-05-2019 29.3 (16:40) 3.6 (00:00) 16.4 9.72 (20:30) 4.44 (20:20) 0 0 0 0 0
29-05-2019 20.5 (17:30) 3.4 (00:00) 12 11.67 (12:20) 5.28 (19:10) 0 0 0 0 0
28-05-2019 18.4 (16:20) 6.2 (00:00) 12.3 10.56 (16:00) 5 (14:00) 0 0 0 0 0
27-05-2019 22.7 (16:30) 6.9 (00:00) 14.8 12.22 (14:30) 5 (15:20) 0 0 0 0 0
26-05-2019 20.6 (17:20) 4.7 (00:00) 12.7 12.5 (15:50) 6.11 (16:20) 0 0 0 0 0
25-05-2019 19.6 (16:40) 8.9 (00:00) 14.3 10.56 (17:20) 5 (17:30) 0 0 0 0 0
24-05-2019 17.8 (14:10) 10.5 (00:00) 14.1 12.5 (15:10) 5.83 (15:00) 0 0 0 0 0
23-05-2019 28.3 (16:30) 9.6 (00:00) 18.9 9.17 (17:20) 3.89 (19:00) 0 0 0 0 0
22-05-2019 27.3 (17:00) 6.5 (00:00) 16.9 7.22 (14:30) 2.78 (14:20) 0 0 0 0 0
21-05-2019 22.8 (16:00) 7.1 (02:50) 14.9 8.33 (20:50) 3.61 (20:30) 0 0 0 0 0

Gráficas

Temp. máximas Temp. mínimas Temp. medias Precipitaciones Rachas de viento máximas Velocidades máximas media en intervalos de 10 minutos

Datos horarios

Fecha y hora oficial Temperatura (ºC) Velocidad del viento (km/h) Dirección del viento Racha (km/h) Dirección de racha Precipitación (mm) Presión (hPa) Tendencia (hPa) Humedad (%)
2019-06-19 23:00:00 18.3 3 Sudoeste 10 Oeste 0 925.4 1.3 49
2019-06-19 22:00:00 20.2 4 Oeste 15 Oeste 0 924.9 1.1 40
2019-06-19 21:00:00 22.2 5 Oeste 30 Oeste 0 924.5 0.5 34
2019-06-19 20:00:00 23.8 7 Oeste 31 Oeste 0 924.1 -0.1 32
2019-06-19 19:00:00 25 5 Oeste 31 Noroeste 0 923.8 -0.8 29
2019-06-19 18:00:00 25.3 8 Noroeste 30 Noroeste 0 924 -0.8 30
2019-06-19 17:00:00 26.6 6 Oeste 21 Oeste 0 924.2 -1.1 26
2019-06-19 16:00:00 25.1 6 Oeste 34 Sudoeste 0 924.6 -1.1 27
2019-06-19 15:00:00 25.2 10 Sudoeste 29 Sudoeste 0 924.8 -0.9 28
2019-06-19 14:00:00 23.9 6 Sudoeste 24 Sudoeste 0 925.3 -0.6 33
2019-06-19 13:00:00 22.5 8 Oeste 32 Sudoeste 0 925.7 -0.1 39
2019-06-19 12:00:00 21.1 8 Oeste 26 Sudoeste 0 925.7 0.2 45
2019-06-19 11:00:00 21.1 8 Oeste 23 Sudoeste 0 925.9 0.5 47
2019-06-19 10:00:00 18.4 11 Sudoeste 22 Sudoeste 0 925.8 0.5 55
2019-06-19 09:00:00 17.1 5 Sudoeste 19 Sudoeste 0 925.5 0.6 61
2019-06-19 08:00:00 14.5 6 Sudoeste 15 Oeste 0 925.4 0.5 73
2019-06-19 07:00:00 12.9 2 Nordeste 4 Norte 0 925.3 0.8 74
2019-06-19 06:00:00 13 0 Calma 5 Este 0 924.9 0.5 77
2019-06-19 05:00:00 12.6 2 Este 8 Sudoeste 0 924.9 0.3 76
2019-06-19 04:00:00 13.4 3 Oeste 11 Oeste 0 924.5 0 69
2019-06-19 03:00:00 13.8 0 Calma 13 Sudoeste 0 924.4 0 64
2019-06-19 02:00:00 15.1 0 Calma 9 Sur 0 924.6 0.5 60
2019-06-19 01:00:00 16.2 4 Este 14 Oeste 0 924.5 1 58
2019-06-19 00:00:00 18.7 5 Sudoeste 24 Oeste 0 924.4 1.2 57
2019-06-18 23:00:00 20.3 7 Oeste 28 Oeste 0 924.1 1.5 39
2019-06-18 22:00:00 21.9 8 Sudoeste 32 Oeste 0 923.5 1.5 32
2019-06-18 21:00:00 23.6 12 Oeste 44 Oeste 0 923.2 1.3 30
2019-06-18 20:00:00 26 12 Oeste 40 Oeste 0 922.6 0.6 23
2019-06-18 19:00:00 28.6 21 Sudoeste 45 Sudoeste 0 922 -0.1 10
2019-06-18 18:00:00 29.7 22 Sudoeste 57 Sudoeste 0 921.9 -0.5 8
2019-06-18 17:00:00 30.3 21 Sudoeste 59 Sudoeste 0 922 -0.4 8
2019-06-18 16:00:00 30 23 Sudoeste 56 Sudoeste 0 922.1 -0.8 8
2019-06-18 15:00:00 28.8 26 Sudoeste 62 Sudoeste 0 922.4 -0.7 9
2019-06-18 14:00:00 29.4 24 Sudoeste 48 Sudoeste 0 922.4 -1.3 8
2019-06-18 13:00:00 28.9 19 Sudoeste 42 Sudoeste 0 922.9 -1 8
2019-06-18 12:00:00 27.8 13 Sudoeste 43 Sudoeste 0 923.1 -0.7 10
2019-06-18 11:00:00 26.2 8 Sudoeste 26 Oeste 0 923.7 0.1 20
2019-06-18 10:00:00 24.7 8 Oeste 21 Sudoeste 0 923.9 0.7 18
2019-06-18 09:00:00 21.1 3 Nordeste 7 Sudeste 0 923.8 1 32
2019-06-18 08:00:00 16.5 3 Este 6 Este 0 923.6 0.9 55
2019-06-18 07:00:00 12.5 2 Este 9 Sudeste 0 923.2 0.2 55
2019-06-18 06:00:00 13.9 2 Nordeste 8 Este 0 922.8 -1.2 48
2019-06-18 05:00:00 17 6 Sudeste 17 Sudeste 0 922.7 -2.6 32
2019-06-18 04:00:00 17.9 8 Sudeste 19 Sudeste 0 923 -2.6 31
2019-06-18 03:00:00 17.5 4 Este 12 Sudeste 0 924 -1.3 33
2019-06-18 02:00:00 17.1 3 Sudeste 7 Sur 0 925.3 0.2 38
2019-06-18 01:00:00 17.2 0 Calma 6 Sudoeste 0 925.6 1.4 40
2019-06-18 00:00:00 20.3 3 Sudoeste 7 Sudoeste 0 925.3 1.9 44
2019-06-17 23:00:00 22.6 3 Sudoeste 16 Noroeste 0 925.1 1.6 21
2019-06-17 22:00:00 24.5 5 Oeste 35 Oeste 0 924.2 1.1 16
2019-06-17 21:00:00 27.1 5 Sudoeste 28 Sudoeste 0 923.4 -0.3 12
2019-06-17 20:00:00 28.3 15 Sudoeste 33 Sudoeste 0 923.5 -0.2 11
2019-06-17 19:00:00 30.2 9 Sudoeste 33 Sudoeste 0 923.1 -1.3 11
2019-06-17 18:00:00 30.6 9 Sudoeste 33 Sudoeste 0 923.7 -1.5 12
2019-06-17 17:00:00 31.2 7 Sudoeste 31 Sudoeste 0 923.7 -2.1 11
2019-06-17 16:00:00 30.6 12 Sudoeste 33 Sudoeste 0 924.4 -2.2 12
2019-06-17 15:00:00 29.4 9 Sudoeste 37 Sudoeste 0 925.2 -1.9 13
2019-06-17 14:00:00 28.8 8 Oeste 34 Sudoeste 0 925.8 -1.6 13
2019-06-17 13:00:00 28.3 12 Sudoeste 40 Sudoeste 0 926.6 -1.2 12
2019-06-17 12:00:00 26.7 4 Oeste 17 Oeste 0 927.1 -0.5 18
2019-06-17 11:00:00 23.2 2 Nordeste 7 Nordeste 0 927.4 -0.1 26
2019-06-17 10:00:00 19.5 4 Este 8 Este 0 927.8 0.4 30
2019-06-17 09:00:00 16.1 4 Este 10 Sudeste 0 927.6 0.5 41
2019-06-17 08:00:00 11.9 5 Este 8 Este 0 927.5 0.5 53
2019-06-17 07:00:00 8.2 3 Este 9 Este 0 927.4 0.4 63
2019-06-17 06:00:00 8.2 3 Este 6 Este 0 927.1 0.1 65
2019-06-17 05:00:00 9 3 Este 9 Este 0 927 0 62
2019-06-17 04:00:00 9 2 Este 6 Este 0 927 -0.2 61
2019-06-17 03:00:00 9.7 0 Calma 5 Sudeste 0 927 -0.2 63
2019-06-17 02:00:00 10.5 0 Calma 6 Sudoeste 0 927 0.2 56
2019-06-17 01:00:00 12.7 0 Calma 3 Este 0 927.2 1 52
2019-06-17 00:00:00 14.9 0 Calma 6 Sudoeste 0 927.2 1.6 45
2019-06-16 23:00:00 18 4 Sudoeste 9 Nordeste 0 926.8 1.3 30
2019-06-16 22:00:00 21.8 3 Sudoeste 13 Oeste 0 926.2 0.7 24
2019-06-16 21:00:00 25.3 0 Calma 8 Noroeste 0 925.6 -0.2 18
2019-06-16 20:00:00 27 4 Noroeste 16 Noroeste 0 925.5 -0.6 13
2019-06-16 19:00:00 28.8 4 Oeste 21 Sudoeste 0 925.5 -1.1 11
2019-06-16 18:00:00 29.4 10 Sudoeste 23 Sudoeste 0 925.8 -1.3 11
2019-06-16 17:00:00 29.3 7 Oeste 22 Sudoeste 0 926.1 -1.7 12
2019-06-16 16:00:00 29.4 9 Sudoeste 30 Oeste 0 926.6 -1.7 12
2019-06-16 15:00:00 27.7 9 Oeste 28 Oeste 0 927.1 -1.6 13
2019-06-16 14:00:00 26.2 5 Nordeste 18 Noroeste 0 927.8 -1.3 15
2019-06-16 13:00:00 26 3 Norte 16 Este 0 928.3 -1 21
2019-06-16 12:00:00 23.3 6 Nordeste 25 Este 0 928.7 -0.4 24
2019-06-16 11:00:00 20.4 12 Este 28 Este 0 929.1 0.1 33
2019-06-16 10:00:00 17.6 13 Este 31 Sudeste 0 929.3 0.5 40
2019-06-16 09:00:00 15 15 Este 32 Este 0 929.1 0.4 46
2019-06-16 08:00:00 12.5 11 Este 24 Este 0 929 0.1 53
2019-06-16 07:00:00 10.3 9 Este 20 Este 0 928.8 -0.5 61
2019-06-16 06:00:00 10.7 8 Este 18 Este 0 928.7 -0.8 60
2019-06-16 05:00:00 11.4 8 Este 18 Este 0 928.9 -1.1 59
2019-06-16 04:00:00 12 9 Este 22 Este 0 929.3 -0.4 59
2019-06-16 03:00:00 10 4 Este 9 Nordeste 0 929.5 0.1 64
2019-06-16 02:00:00 10 5 Este 10 Este 0 930 0.9 60
2019-06-16 01:00:00 10.1 0 Calma 6 Noroeste 0 929.7 1.3 52
2019-06-16 00:00:00 11.8 0 Calma 4 Sudeste 0 929.4 1 44
2019-06-15 23:00:00 14.2 0 Calma 4 Sudoeste 0 929.1 0.9 41
2019-06-15 22:00:00 17.2 0 Calma 5 Noroeste 0 928.4 0.3 38
2019-06-15 21:00:00 20.6 2 Oeste 19 Oeste 0 928.4 0 24
2019-06-15 20:00:00 21.3 4 Noroeste 17 Noroeste 0 928.2 -0.4 22
2019-06-15 19:00:00 22.7 4 Sudoeste 18 Noroeste 0 928.1 -0.6 20
2019-06-15 18:00:00 22.3 5 Norte 22 Oeste 0 928.4 -0.7 22
2019-06-15 17:00:00 23.7 3 Sudoeste 20 Noroeste 0 928.6 -0.8 21
2019-06-15 16:00:00 21.8 6 Norte 21 Noroeste 0 928.7 -0.9 25
2019-06-15 15:00:00 20.5 5 Oeste 24 Sudoeste 0 929.1 -0.8 30
2019-06-15 14:00:00 20 4 Sudoeste 20 Noroeste 0 929.4 -0.3 29
2019-06-15 13:00:00 18.9 6 Sudeste 21 Sudoeste 0 929.6 0 32
2019-06-15 12:00:00 18.7 6 Sudoeste 26 Sudoeste 0 929.9 0.7 32
2019-06-15 11:00:00 17.3 8 Sudoeste 22 Sudoeste 0 929.7 0.8 39
2019-06-15 10:00:00 16.3 6 Sudoeste 21 Sudoeste 0 929.6 1.2 43
2019-06-15 09:00:00 14.2 6 Sudoeste 20 Sudoeste 0 929.2 1.3 48
2019-06-15 08:00:00 12.7 6 Sudoeste 13 Sudoeste 0 928.9 1.2 52
2019-06-15 07:00:00 9 4 Sudoeste 15 Sudoeste 0 928.4 1 64
2019-06-15 06:00:00 9.9 5 Sudoeste 14 Sudoeste 0 927.9 0.9 61
2019-06-15 05:00:00 11 3 Sudoeste 14 Oeste 0 927.7 1.1 56
2019-06-15 04:00:00 12.3 4 Oeste 17 Oeste 0 927.4 1.1 53
2019-06-15 03:00:00 12.5 4 Sudoeste 13 Sudoeste 0 927 1.2 50
2019-06-15 02:00:00 12.1 2 Oeste 18 Oeste 0 926.6 1.5 43
2019-06-15 01:00:00 13.6 5 Oeste 19 Oeste 0 926.3 2.5 37
2019-06-15 00:00:00 15.3 6 Oeste 22 Oeste 0 925.8 3.1 33
2019-06-14 23:00:00 16.3 3 Oeste 29 Oeste 0 925.1 3.3 32
2019-06-14 22:00:00 17.7 10 Oeste 34 Oeste 0 923.8 2.6 29
2019-06-14 21:00:00 20.1 10 Oeste 31 Oeste 0 922.7 2 24
2019-06-14 20:00:00 22 12 Oeste 40 Oeste 0 921.8 1.5 17
2019-06-14 19:00:00 23.8 12 Oeste 41 Noroeste 0 921.2 0.6 14
2019-06-14 18:00:00 26 10 Oeste 39 Oeste 0 920.7 -0.3 14
2019-06-14 17:00:00 27 7 Oeste 33 Oeste 0 920.3 -0.9 13
2019-06-14 16:00:00 25.9 9 Oeste 32 Sudoeste 0 920.6 -0.6 12
2019-06-14 15:00:00 24.2 10 Oeste 40 Sudoeste 0 921 -0.5 15
2019-06-14 14:00:00 23.6 9 Oeste 32 Oeste 0 921.2 -0.3 17
2019-06-14 13:00:00 22.8 10 Sudoeste 32 Sudoeste 0 921.2 -0.3 19
2019-06-14 12:00:00 21.5 10 Oeste 35 Sudoeste 0 921.5 0.1 23
2019-06-14 11:00:00 20.7 4 Sudoeste 19 Sudoeste 0 921.5 0.2 32
2019-06-14 10:00:00 16.6 3 Norte 6 Nordeste 0 921.5 0.4 50
2019-06-14 09:00:00 13.1 2 Nordeste 6 Este 0 921.4 0.5 65
2019-06-14 08:00:00 9.2 2 Sudoeste 4 Sudoeste 0 921.3 0.4 74
2019-06-14 07:00:00 6.6 0 Calma 6 Oeste 0 921.1 0.1 81
2019-06-14 06:00:00 6.8 0 Calma 3 Este 0 920.9 -0.2 79
2019-06-14 05:00:00 8.1 0 Calma 5 Oeste 0 920.9 -0.4 78
2019-06-14 04:00:00 9.1 2 Sudoeste 8 Oeste 0 921 -0.7 73
2019-06-14 03:00:00 10.1 3 Sudoeste 6 Sudoeste 0 921.1 -0.1 70
2019-06-14 02:00:00 11.7 0 Calma 8 Oeste 0 921.3 0.6 69
2019-06-14 01:00:00 14.1 3 Sudoeste 8 Sudoeste 0 921.7 2 55
2019-06-14 00:00:00 16.3 3 Oeste 12 Noroeste 0 921.2 2.5 31
2019-06-13 23:00:00 18.5 3 Oeste 14 Oeste 0 920.7 2.7 21
2019-06-13 22:00:00 20.9 2 Oeste 16 Oeste 0 919.7 1.8 15
2019-06-13 21:00:00 23.7 4 Oeste 18 Oeste 0 918.7 0.7 14
2019-06-13 20:00:00 25.5 9 Sudoeste 30 Sudoeste 0 918 -0.3 14
2019-06-13 19:00:00 26.4 14 Sudoeste 54 Oeste 0 917.9 -0.7 11
2019-06-13 18:00:00 27.6 11 Sudoeste 43 Sudoeste 0 918 -0.9 12
2019-06-13 17:00:00 27.3 18 Sudoeste 45 Sudoeste 0 918.3 -1 14
2019-06-13 16:00:00 25.4 12 Sudoeste 49 Sudoeste 0 918.6 -0.9 16
2019-06-13 15:00:00 25.6 17 Sudoeste 47 Sudoeste 0 918.9 -1.3 15
2019-06-13 14:00:00 25.1 19 Sudoeste 49 Sudoeste 0 919.3 -0.9 17
2019-06-13 13:00:00 24 18 Sudoeste 45 Sudoeste 0 919.5 -1 18
2019-06-13 12:00:00 22.2 3 Oeste 14 Oeste 0 920.2 -0.2 24
2019-06-13 11:00:00 19.7 4 Oeste 14 Sudoeste 0 920.2 0.1 29
2019-06-13 10:00:00 17.4 4 Sudoeste 12 Oeste 0 920.5 0.6 37
2019-06-13 09:00:00 14.2 0 Calma 10 Sudeste 0 920.4 1 51
2019-06-13 08:00:00 9.3 3 Este 7 Sudeste 0 920.1 0.8 70
2019-06-13 07:00:00 4.1 0 Calma 6 Este 0 919.9 0.5 77
2019-06-13 06:00:00 5.2 3 Este 8 Sudeste 0 919.4 -0.4 71
2019-06-13 05:00:00 4.3 2 Sudoeste 8 Sudeste 0 919.3 -1 67
2019-06-13 04:00:00 4.5 4 Sudeste 6 Sudeste 0 919.4 -1.2 62
2019-06-13 03:00:00 5.1 0 Calma 10 Sudoeste 0 919.8 -1 58
2019-06-13 02:00:00 5.9 2 Sur 7 Sudoeste 0 920.3 -0.6 57
2019-06-13 01:00:00 7.7 0 Calma 7 Sudoeste 0 920.6 0.1 50
2019-06-13 00:00:00 10.3 0 Calma 5 Oeste 0 920.8 0.5 53
2019-06-12 23:00:00 13.1 0 Calma 5 Sudoeste 0 920.9 0.6 33
2019-06-12 22:00:00 17 3 Noroeste 14 Noroeste 0 920.5 0.2 23
2019-06-12 21:00:00 19 6 Noroeste 22 Noroeste 0 920.3 -0.6 17
2019-06-12 20:00:00 20.9 6 Oeste 23 Oeste 0 920.3 -1.2 16
2019-06-12 19:00:00 21.9 7 Sudoeste 27 Oeste 0 920.3 -1.8 16
2019-06-12 18:00:00 21.7 4 Noroeste 26 Sudoeste 0 920.9 -2 17
2019-06-12 17:00:00 22.5 12 Sudoeste 36 Sudoeste 0 921.5 -2.1 14
2019-06-12 16:00:00 21.2 8 Sudoeste 30 Oeste 0 922.1 -2.1 17
2019-06-12 15:00:00 18.4 7 Noroeste 28 Oeste 0 922.9 -1.8 24
2019-06-12 14:00:00 17.6 4 Noroeste 22 Sudoeste 0 923.6 -1.3 29
2019-06-12 13:00:00 17.6 4 Sudoeste 23 Sudoeste 0 924.2 -0.9 24
2019-06-12 12:00:00 15.9 5 Oeste 19 Oeste 0 924.7 -0.3 29
2019-06-12 11:00:00 14.4 4 Oeste 15 Noroeste 0 924.9 -0.1 35
2019-06-12 10:00:00 11.1 2 Noroeste 8 Este 0 925.1 0.4 49
2019-06-12 09:00:00 7.3 2 Este 8 Sudeste 0 925 0.5 68
2019-06-12 08:00:00 4.5 3 Este 7 Este 0 925 0.6 79
2019-06-12 07:00:00 1.4 0 Calma 4 Sudeste 0 924.7 0.1 82
2019-06-12 06:00:00 2.1 2 Este 5 Este 0 924.5 -0.3 82
2019-06-12 05:00:00 2.2 0 Calma 4 Sudoeste 0 924.4 -0.5 79
2019-06-12 04:00:00 2.9 0 Calma 3 Este 0 924.6 -0.5 79
2019-06-12 03:00:00 3.8 0 Calma 4 Sudoeste 0 924.8 -0.4 77
2019-06-12 02:00:00 5.3 3 Sudoeste 6 Sudoeste 0 924.9 -0.5 68
2019-06-12 01:00:00 6.8 0 Calma 8 Oeste 0 925.1 0.3 62
2019-06-12 00:00:00 8.7 3 Este 12 Norte 0 925.2 0.4 58
2019-06-11 23:00:00 10.2 6 Norte 14 Nordeste 0 925.4 0.9 50
2019-06-11 22:00:00 11.9 5 Nordeste 13 Norte 0 924.8 0.5 43
2019-06-11 21:00:00 13.8 6 Norte 18 Norte 0 924.8 0.5 39
2019-06-11 20:00:00 14.8 12 Norte 31 Noroeste 0 924.5 0 33
2019-06-11 19:00:00 15.5 11 Norte 34 Nordeste 0 924.3 -0.3 30
2019-06-11 18:00:00 16.7 10 Noroeste 33 Noroeste 0 924.3 -0.7 27
2019-06-11 17:00:00 16.6 12 Norte 42 Norte 0 924.5 -0.2 28
2019-06-11 16:00:00 16 6 Noroeste 44 Noroeste 0 924.6 -0.5 29
2019-06-11 15:00:00 14.8 14 Norte 36 Norte 0 925 -0.2 32
2019-06-11 14:00:00 14.3 11 Norte 33 Noroeste 0 924.7 0 34
2019-06-11 13:00:00 13 10 Norte 30 Norte 0 925.1 0.5 43
2019-06-11 12:00:00 11.6 14 Norte 34 Norte 0 925.2 0.8 53
2019-06-11 11:00:00 10.8 14 Norte 28 Noroeste 0 924.7 0.8 54
2019-06-11 10:00:00 9.9 13 Norte 33 Noroeste 0 924.6 0.9 58
2019-06-11 09:00:00 9.1 11 Norte 28 Noroeste 0 924.4 0.9 64
2019-06-11 08:00:00 8.3 5 Noroeste 15 Norte 0 923.9 0.4 72
2019-06-11 07:00:00 7.8 5 Noroeste 12 Noroeste 0 923.7 -0.2 78
2019-06-11 06:00:00 8.3 3 Noroeste 29 Norte 0 923.5 0 78
2019-06-11 05:00:00 9.2 12 Norte 26 Norte 0 923.5 -0.2 67
2019-06-11 04:00:00 9.7 3 Norte 14 Sudoeste 0 923.9 0.3 66
2019-06-11 03:00:00 9.8 5 Oeste 31 Noroeste 0 923.5 -0.1 67
2019-06-11 02:00:00 10.4 7 Norte 26 Noroeste 0 923.7 0.1 65
2019-06-11 01:00:00 11.8 9 Norte 23 Norte 0 923.6 -0.1 58
2019-06-11 00:00:00 14 5 Noroeste 9 Norte 0 923.6 -0.4 46
2019-06-10 23:00:00 14.8 3 Norte 9 Este 0 923.6 -0.3 42
2019-06-10 22:00:00 15.6 5 Este 17 Este 0 923.7 -0.8 38
2019-06-10 21:00:00 16.6 6 Nordeste 19 Nordeste 0 924 -1.2 34
2019-06-10 20:00:00 17.6 7 Nordeste 24 Norte 0 923.9 -1.6 31
2019-06-10 19:00:00 18.5 9 Noroeste 26 Norte 0 924.5 -1.5 30
2019-06-10 18:00:00 18.7 10 Norte 32 Noroeste 0 925.2 -1.2 31
2019-06-10 17:00:00 19.9 7 Noroeste 23 Noroeste 0 925.5 -1.6 25
2019-06-10 16:00:00 21.2 6 Sudoeste 31 Oeste 0 926 -1.6 24
2019-06-10 15:00:00 19.7 8 Oeste 26 Oeste 0 926.4 -1.4 27
2019-06-10 14:00:00 19.4 7 Sudoeste 24 Oeste 0 927.1 -0.9 32
2019-06-10 13:00:00 18.4 8 Oeste 26 Noroeste 0 927.6 -0.6 35
2019-06-10 12:00:00 16 8 Oeste 24 Noroeste 0 927.8 -0.2 45
2019-06-10 11:00:00 15.1 9 Noroeste 25 Noroeste 0 928 0.3 52
2019-06-10 10:00:00 14.1 4 Noroeste 15 Oeste 0 928.2 0.7 59
2019-06-10 09:00:00 13.7 4 Oeste 12 Sudoeste 0 928 0.6 56
2019-06-10 08:00:00 11.2 4 Sudoeste 13 Oeste 0 927.7 0.2 68
2019-06-10 07:00:00 6.8 4 Sudoeste 8 Sudoeste 0 927.5 -0.4 82
2019-06-10 06:00:00 7.3 5 Sudoeste 9 Oeste 0 927.4 -0.8 82
2019-06-10 05:00:00 8 3 Sudoeste 10 Oeste 0 927.5 -0.8 81
2019-06-10 04:00:00 8.6 3 Sudoeste 9 Oeste 0 927.9 -0.2 79
2019-06-10 03:00:00 9.3 3 Sudoeste 14 Noroeste 0 928.2 0.4 76
2019-06-10 02:00:00 9.9 5 Noroeste 18 Noroeste 0 928.3 1.1 75
2019-06-10 01:00:00 11.1 3 Sur 38 Norte 0 928.1 2.2 71
2019-06-10 00:00:00 11.7 17 Norte 37 Norte 0 927.8 2.8 70
2019-06-09 23:00:00 12.9 10 Noroeste 30 Noroeste 0 927.2 2.6 67
2019-06-09 22:00:00 15.7 7 Noroeste 26 Noroeste 0 925.9 1.5 58
2019-06-09 21:00:00 18.1 8 Norte 32 Noroeste 0 925 0.6 49
2019-06-09 20:00:00 22.4 6 Oeste 27 Oeste 0 924.6 -0.2 23
2019-06-09 19:00:00 23.2 7 Oeste 29 Oeste 0 924.4 -0.8 22
2019-06-09 18:00:00 24.8 6 Oeste 22 Oeste 0 924.4 -1.4 19
2019-06-09 17:00:00 25.5 10 Sudoeste 27 Sudoeste 0 924.8 -1.3 19
2019-06-09 16:00:00 24.7 3 Sur 23 Oeste 0 925.2 -1.3 22
2019-06-09 15:00:00 23.6 8 Oeste 24 Oeste 0 925.8 -0.9 27
2019-06-09 14:00:00 22.7 6 Oeste 29 Oeste 0 926.1 -0.7 27
2019-06-09 13:00:00 22.6 10 Sudoeste 30 Sudoeste 0 926.5 -0.4 27
2019-06-09 12:00:00 20.9 5 Oeste 22 Oeste 0 926.7 0 35
2019-06-09 11:00:00 19.9 9 Sudoeste 22 Sudoeste 0 926.8 0.2 35
2019-06-09 10:00:00 18.1 4 Noroeste 15 Oeste 0 926.9 0.7 41
2019-06-09 09:00:00 16.3 2 Sudoeste 8 Oeste 0 926.7 0.6 49
2019-06-09 08:00:00 12 0 Calma 4 Sudeste 0 926.6 0.5 67
2019-06-09 07:00:00 7.5 2 Sudeste 5 Sudoeste 0 926.2 -0.2 81
2019-06-09 06:00:00 8.7 0 Calma 8 Sudoeste 0 926.1 -0.5 81
2019-06-09 05:00:00 9.8 2 Este 6 Sudoeste 0 926.1 -0.4 77
2019-06-09 04:00:00 10.8 0 Calma 8 Sudoeste 0 926.4 -0.3 75
2019-06-09 03:00:00 12.5 3 Sudoeste 6 Oeste 0 926.6 0 70
2019-06-09 02:00:00 14.2 3 Oeste 12 Oeste 0 926.5 0.3 65
2019-06-09 01:00:00 15 2 Sudoeste 5 Este 0 926.7 1.1 61
2019-06-09 00:00:00 16.3 2 Oeste 12 Oeste 0 926.6 1.1 52
2019-06-08 23:00:00 17.5 0 Calma 6 Oeste 0 926.2 0.7 52
2019-06-08 22:00:00 19.2 2 Nordeste 7 Noroeste 0 925.6 0 44
2019-06-08 21:00:00 21 0 Calma 17 Norte 0 925.5 -0.5 34
2019-06-08 20:00:00 22.2 6 Nordeste 18 Norte 0 925.5 -0.9 31
2019-06-08 19:00:00 24.5 3 Oeste 14 Noroeste 0 925.6 -1.4 23
2019-06-08 18:00:00 25.5 6 Oeste 24 Sudoeste 0 926 -1.7 21
2019-06-08 17:00:00 26.2 8 Sur 33 Sudoeste 0 926.4 -2.3 18
2019-06-08 16:00:00 26.2 8 Sudoeste 42 Sudoeste 0 927 -2.3 20
2019-06-08 15:00:00 24.2 4 Oeste 19 Este 0 927.7 -2.2 24
2019-06-08 14:00:00 21.7 8 Este 24 Este 0 928.7 -1.7 24
2019-06-08 13:00:00 21 8 Este 23 Sudeste 0 929.3 -1.8 25
2019-06-08 12:00:00 18.9 7 Este 27 Este 0 929.9 -1.4 33
2019-06-08 11:00:00 16.4 16 Este 37 Este 0 930.4 -1 36
2019-06-08 10:00:00 13.8 10 Este 22 Este 0 931.1 -0.3 43
2019-06-08 09:00:00 10.3 6 Este 13 Este 0 931.3 0 54
2019-06-08 08:00:00 7.8 6 Este 11 Sudeste 0 931.4 0.2 61
2019-06-08 07:00:00 3.6 4 Este 7 Este 0 931.4 0.3 78
2019-06-08 06:00:00 4.1 3 Este 6 Sudeste 0 931.3 0.3 77
2019-06-08 05:00:00 4.5 2 Este 6 Sudeste 0 931.2 0.3 78
2019-06-08 04:00:00 5.3 3 Este 6 Sudeste 0 931.1 0.3 75
2019-06-08 03:00:00 5.6 3 Este 6 Este 0 931 0.4 77
2019-06-08 02:00:00 5.9 2 Norte 3 Noroeste 0 930.9 0.6 76
2019-06-08 01:00:00 7 2 Este 10 Sudeste 0 930.8 1.1 66
2019-06-08 00:00:00 8.6 0 Calma 4 Sudoeste 0 930.6 1.4 60
2019-06-07 23:00:00 10.7 2 Sudoeste 4 Oeste 0 930.3 1.6 52
2019-06-07 22:00:00 13.6 2 Oeste 14 Oeste 0 929.7 1.3 35
2019-06-07 21:00:00 15.9 4 Oeste 20 Oeste 0 929.2 1.1 26
2019-06-07 20:00:00 16.7 6 Noroeste 25 Oeste 0 928.7 0.9 26
2019-06-07 19:00:00 17.7 7 Oeste 28 Oeste 0 928.4 0.8 23
2019-06-07 18:00:00 18.6 9 Oeste 33 Oeste 0 928.1 0.7 24
2019-06-07 17:00:00 18.7 7 Oeste 28 Oeste 0 927.8 0.8 25
2019-06-07 16:00:00 18.3 9 Oeste 35 Oeste 0 927.6 0.9 26
2019-06-07 15:00:00 16.7 10 Oeste 31 Sudoeste 0 927.4 1.5 32
2019-06-07 14:00:00 16.1 7 Oeste 38 Oeste 0 927 1.6 37
2019-06-07 13:00:00 13.5 12 Oeste 36 Oeste 0 926.7 1.9 45
2019-06-07 12:00:00 13.9 9 Oeste 40 Sudoeste 0 925.9 1.7 44
2019-06-07 11:00:00 11.1 14 Sudoeste 36 Oeste 0 925.4 1.9 56
2019-06-07 10:00:00 10.3 9 Sudoeste 39 Oeste 0 924.8 2.3 65
2019-06-07 09:00:00 8.4 14 Sudoeste 29 Sudoeste 0 924.2 2.5 72
2019-06-07 08:00:00 7.7 9 Sudoeste 36 Sudoeste 0 923.5 2.5 76
2019-06-07 07:00:00 7.5 13 Sudoeste 28 Sudoeste 0 922.5 2 77
2019-06-07 06:00:00 7.5 9 Sudoeste 41 Sudoeste 0 921.7 2.1 77
2019-06-07 05:00:00 8.2 8 Oeste 36 Sudoeste 0 921 1.6 77
2019-06-07 04:00:00 8.5 11 Sudoeste 28 Sudoeste 0 920.5 2 80
2019-06-07 03:00:00 8.1 6 Sudoeste 30 Oeste 0.6 919.6 2.8 80
2019-06-07 02:00:00 9 9 Oeste 37 Oeste 0.2 919.4 3.1 79
2019-06-07 01:00:00 10.4 9 Oeste 46 Oeste 0.6 918.5 2.3 79
2019-06-07 00:00:00 15.8 21 Sudoeste 49 Sudoeste 0 916.8 1 45
2019-06-06 23:00:00 18 24 Sudoeste 49 Sudoeste 0 916.3 0.5 30
2019-06-06 22:00:00 18.8 24 Sudoeste 50 Sudoeste 0 916.2 0.3 27
2019-06-06 21:00:00 19.9 18 Sudoeste 48 Sudoeste 0 915.8 -0.4 26
2019-06-06 20:00:00 20.7 26 Sudoeste 55 Sudoeste 0 915.8 -1.3 24
2019-06-06 19:00:00 21.4 15 Sudoeste 54 Sudoeste 0 915.9 -2.2 21
2019-06-06 18:00:00 23.4 23 Sudoeste 50 Sudoeste 0 916.2 -2.3 17
2019-06-06 17:00:00 23.9 20 Sudoeste 48 Sudoeste 0 917.1 -2.4 17
2019-06-06 16:00:00 22.3 23 Sudoeste 50 Sudoeste 0 918.1 -2.4 18
2019-06-06 15:00:00 21.8 16 Sudoeste 43 Sudoeste 0 918.5 -2.8 16
2019-06-06 14:00:00 20.4 12 Sudoeste 39 Sudoeste 0 919.5 -2.5 20
2019-06-06 13:00:00 19.3 12 Sudoeste 28 Sudoeste 0 920.5 -2.1 22
2019-06-06 12:00:00 18 7 Sudoeste 25 Este 0 921.3 -1.7 30
2019-06-06 11:00:00 16.4 6 Sudeste 18 Este 0 922 -1.3 37
2019-06-06 10:00:00 16.2 2 Sudoeste 10 Oeste 0 922.6 -0.9 41
2019-06-06 09:00:00 13.1 4 Norte 6 Noroeste 0 923 -0.5 52
2019-06-06 08:00:00 7.7 0 Calma 7 Sudoeste 0 923.3 -0.3 73
2019-06-06 07:00:00 6.6 0 Calma 3 Sudoeste 0 923.5 0 80
2019-06-06 06:00:00 7.3 0 Calma 4 Sudoeste 0 923.5 -0.3 77
2019-06-06 05:00:00 8.2 0 Calma 13 Sudeste 0 923.6 -0.3 80
2019-06-06 04:00:00 8.6 3 Sudoeste 8 Oeste 0 923.5 -0.3 80
2019-06-06 03:00:00 9.5 3 Oeste 12 Oeste 0 923.8 0.2 76
2019-06-06 02:00:00 9.6 4 Sudoeste 12 Oeste 0 923.9 0.4 77
2019-06-06 01:00:00 9.7 3 Sudoeste 5 Sudoeste 0 923.8 0.9 69
2019-06-06 00:00:00 11.7 0 Calma 10 Oeste 0 923.6 1.1 57
2019-06-05 23:00:00 12.9 3 Oeste 14 Oeste 0 923.5 1.6 41
2019-06-05 22:00:00 13.8 5 Oeste 19 Noroeste 0 922.9 1.1 38
2019-06-05 21:00:00 15.3 7 Oeste 33 Oeste 0 922.5 0.6 31
2019-06-05 20:00:00 17.3 12 Oeste 33 Oeste 0 921.9 -0.1 27
2019-06-05 19:00:00 17.2 8 Sudoeste 34 Oeste 0 921.8 -0.4 30
2019-06-05 18:00:00 18.8 9 Oeste 32 Oeste 0 921.9 -0.5 26
2019-06-05 17:00:00 19.4 10 Oeste 39 Oeste 0 922 -0.6 28
2019-06-05 16:00:00 18.4 12 Oeste 34 Oeste 0 922.2 -0.5 28
2019-06-05 15:00:00 17.4 8 Oeste 31 Oeste 0 922.4 -0.2 36
2019-06-05 14:00:00 16 8 Oeste 30 Oeste 0 922.6 0.5 44
2019-06-05 13:00:00 15 6 Oeste 24 Oeste 0 922.7 1.1 56
2019-06-05 12:00:00 11.7 4 Oeste 19 Noroeste 0 922.6 2 75
2019-06-05 11:00:00 9.5 4 Oeste 17 Oeste 1.2 922.1 2.2 84
2019-06-05 10:00:00 9 5 Oeste 18 Oeste 0.4 921.6 2.2 83
2019-06-05 09:00:00 8.7 5 Oeste 21 Oeste 1.6 920.6 1.3 86
2019-06-05 08:00:00 8.8 3 Sudoeste 20 Noroeste 0.2 919.9 1 85
2019-06-05 07:00:00 8.8 7 Noroeste 20 Noroeste 3.4 919.4 0.6 84
2019-06-05 06:00:00 10 3 Oeste 18 Noroeste 1 919.3 0.7 82
2019-06-05 05:00:00 10.9 6 Oeste 19 Noroeste 0 918.9 0.1 74
2019-06-05 04:00:00 12.1 4 Oeste 17 Oeste 0 918.8 -0.4 71
2019-06-05 03:00:00 13.7 3 Noroeste 14 Noroeste 0 918.6 -1.1 70
2019-06-05 02:00:00 14.9 6 Noroeste 14 Noroeste 0 918.8 -1.1 62
2019-06-05 01:00:00 16.2 3 Oeste 21 Oeste 0 919.2 -0.4 45
2019-06-05 00:00:00 17.1 3 Sudoeste 17 Oeste 0 919.7 0.5 49
2019-06-04 23:00:00 17.7 4 Oeste 21 Oeste 0 919.9 0.8 46
2019-06-04 22:00:00 18.8 8 Oeste 36 Oeste 0 919.6 0.8 43
2019-06-04 21:00:00 20.5 5 Oeste 30 Noroeste 0 919.2 0.4 37
2019-06-04 20:00:00 21.6 9 Noroeste 30 Oeste 0 919.1 -0.3 33
2019-06-04 19:00:00 24.1 7 Oeste 30 Oeste 0 918.8 -0.9 27
2019-06-04 18:00:00 25.1 7 Oeste 32 Noroeste 0 918.8 -1.4 26
2019-06-04 17:00:00 26.7 8 Oeste 37 Oeste 0 919.4 -1.4 22
2019-06-04 16:00:00 26.8 12 Oeste 42 Oeste 0 919.7 -1.8 22
2019-06-04 15:00:00 25.5 12 Oeste 45 Sudoeste 0 920.2 -1.8 25
2019-06-04 14:00:00 24.6 13 Sudoeste 36 Oeste 0 920.8 -1.5 25
2019-06-04 13:00:00 23.2 13 Sudoeste 31 Sudoeste 0 921.5 -1.1 31
2019-06-04 12:00:00 21.5 8 Sudoeste 33 Sudoeste 0 922 -0.4 40
2019-06-04 11:00:00 19.4 13 Sudoeste 36 Sudoeste 0 922.3 0.1 50
2019-06-04 10:00:00 18.3 8 Oeste 21 Oeste 0 922.6 0.6 55
2019-06-04 09:00:00 17.9 8 Sudoeste 19 Sudoeste 0 922.4 0.6 57
2019-06-04 08:00:00 13.8 0 Calma 5 Este 0 922.2 0.2 73
2019-06-04 07:00:00 10.7 0 Calma 11 Sudoeste 0 922 -0.4 73
2019-06-04 06:00:00 11.5 0 Calma 7 Sudoeste 0 921.8 -0.9 66
2019-06-04 05:00:00 12.5 2 Oeste 7 Oeste 0 922 -0.9 61
2019-06-04 04:00:00 12.6 0 Calma 10 Oeste 0 922.4 -0.9 60
2019-06-04 03:00:00 13.1 4 Oeste 12 Sudoeste 0 922.7 -0.9 48
2019-06-04 02:00:00 12.6 3 Sudoeste 11 Sudoeste 0 922.9 -0.8 55
2019-06-04 01:00:00 14.7 0 Calma 4 Nordeste 0 923.3 0.2 44
2019-06-04 00:00:00 17.7 0 Calma 11 Sudoeste 0 923.6 0.7 31
2019-06-03 23:00:00 20.7 3 Sur 13 Sudoeste 0 923.7 1 19
2019-06-03 22:00:00 23.6 0 Calma 25 Sudoeste 0 923.1 0 16
2019-06-03 21:00:00 22 12 Sudoeste 37 Sudoeste 0 922.9 -0.4 22
2019-06-03 20:00:00 29.5 12 Sudoeste 31 Sudoeste 0 922.7 -1 10
2019-06-03 19:00:00 30.8 9 Oeste 38 Sudoeste 0 923.1 -1.3 9
2019-06-03 18:00:00 32 14 Oeste 46 Oeste 0 923.3 -1.9 7
2019-06-03 17:00:00 32.3 15 Sudoeste 45 Sudoeste 0 923.7 -2.3 8
2019-06-03 16:00:00 31.4 12 Oeste 37 Sudoeste 0 924.4 -2.2 9
2019-06-03 15:00:00 29.9 10 Oeste 32 Oeste 0 925.2 -1.9 10
2019-06-03 14:00:00 29.3 11 Sudoeste 33 Sudoeste 0 926 -1.3 12
2019-06-03 13:00:00 28.3 4 Oeste 22 Sudoeste 0 926.6 -0.8 15
2019-06-03 12:00:00 25.6 4 Noroeste 19 Oeste 0 927.1 -0.3 17
2019-06-03 11:00:00 24 3 Oeste 11 Oeste 0 927.3 -0.3 24
2019-06-03 10:00:00 18.1 3 Este 7 Sudeste 0 927.4 0.3 46
2019-06-03 09:00:00 16.6 4 Este 8 Sudeste 0 927.4 0.4 51
2019-06-03 08:00:00 12.8 2 Nordeste 12 Sudeste 0 927.6 0.7 62
2019-06-03 07:00:00 11.9 5 Este 12 Este 0 927.1 0.2 61
2019-06-03 06:00:00 11.1 3 Este 6 Este 0 927 -0.1 65
2019-06-03 05:00:00 11.1 0 Calma 4 Este 0 926.9 -0.4 60
2019-06-03 04:00:00 11.9 0 Calma 4 Este 0 926.9 -0.5 61
2019-06-03 03:00:00 12 0 Calma 5 Noroeste 0 927.1 -0.3 52
2019-06-03 02:00:00 13.1 0 Calma 5 Sudoeste 0 927.3 0 50
2019-06-03 01:00:00 15.5 0 Calma 6 Sudeste 0 927.4 0.7 44
2019-06-03 00:00:00 17.3 0 Calma 5 Sudoeste 0 927.4 1.2 48
2019-06-02 23:00:00 20.5 0 Calma 4 Sudoeste 0 927.3 1.3 33
2019-06-02 22:00:00 24.5 3 Sudoeste 19 Noroeste 0 926.7 0.9 22
2019-06-02 21:00:00 27.5 4 Oeste 22 Noroeste 0 926.2 0.3 16
2019-06-02 20:00:00 28.6 6 Oeste 29 Oeste 0 926 -0.1 14
2019-06-02 19:00:00 30.2 6 Noroeste 26 Noroeste 0 925.8 -0.6 12
2019-06-02 18:00:00 31.9 6 Oeste 34 Oeste 0 925.9 -1.1 12
2019-06-02 17:00:00 32.3 8 Oeste 41 Sudoeste 0 926.1 -1.6 12
2019-06-02 16:00:00 33.1 10 Sudoeste 37 Sudoeste 0 926.4 -2.1 11
2019-06-02 15:00:00 32.7 6 Oeste 32 Sudoeste 0 927 -1.8 13
2019-06-02 14:00:00 31.3 4 Oeste 26 Sudoeste 0 927.7 -1.3 15
2019-06-02 13:00:00 29.9 6 Noroeste 17 Oeste 0 928.5 -0.5 20
2019-06-02 12:00:00 28.7 3 Sudoeste 18 Sudoeste 0 928.8 -0.3 22
2019-06-02 11:00:00 25.6 3 Nordeste 8 Nordeste 0 929 0.3 28
2019-06-02 10:00:00 22.7 3 Nordeste 10 Sudeste 0 929 0.8 33
2019-06-02 09:00:00 19.8 5 Sudeste 12 Sudeste 0 929.1 1.2 38
2019-06-02 08:00:00 15.9 5 Este 11 Sudeste 0 928.7 0.9 49
2019-06-02 07:00:00 10.9 0 Calma 8 Sudoeste 0 928.2 0.3 67
2019-06-02 06:00:00 12.4 2 Sur 12 Sudeste 0 927.9 -0.2 65
2019-06-02 05:00:00 13.9 4 Este 8 Este 0 927.8 -0.2 58
2019-06-02 04:00:00 14.4 4 Este 8 Este 0 927.9 -0.2 59
2019-06-02 03:00:00 15.8 4 Nordeste 9 Este 0 928.1 -0.4 53
2019-06-02 02:00:00 17.6 7 Este 12 Sudeste 0 928 -0.2 44
2019-06-02 01:00:00 19.2 5 Este 12 Este 0 928.1 0.7 37
2019-06-02 00:00:00 18 4 Este 14 Este 0 928.5 1.3 40
2019-06-01 23:00:00 19.2 2 Sur 9 Oeste 0 928.2 1.1 40
2019-06-01 22:00:00 23.1 0 Calma 3 Sudoeste 0 927.4 0.1 31
2019-06-01 21:00:00 28 0 Calma 5 Noroeste 0 927.2 -0.4 16
2019-06-01 20:00:00 30.7 3 Sudoeste 11 Sudoeste 0 927.1 -0.9 9
2019-06-01 19:00:00 32.1 3 Oeste 15 Oeste 0 927.3 -1.3 9
2019-06-01 18:00:00 33.7 4 Noroeste 18 Sudoeste 0 927.6 -1.5 9
2019-06-01 17:00:00 33.7 3 Oeste 15 Sudoeste 0 928 -1.8 9
2019-06-01 16:00:00 32.5 6 Sudoeste 18 Noroeste 0 928.6 -1.7 10
2019-06-01 15:00:00 31 3 Sur 15 Sudeste 0 929.1 -1.5 11
2019-06-01 14:00:00 30.2 3 Norte 14 Este 0 929.8 -1.1 15
2019-06-01 13:00:00 28.9 5 Norte 16 Norte 0 930.3 -0.7 15
2019-06-01 12:00:00 27.2 5 Norte 10 Este 0 930.6 -0.3 21
2019-06-01 11:00:00 24.6 5 Este 14 Este 0 930.9 -0.1 25
2019-06-01 10:00:00 21.8 6 Este 18 Este 0 931 0.4 31
2019-06-01 09:00:00 18.7 9 Este 19 Sudeste 0 930.9 0.7 37
2019-06-01 08:00:00 16.1 8 Sudeste 15 Este 0 931 0.8 45
2019-06-01 07:00:00 12 8 Este 16 Sudeste 0 930.6 0.4 58
2019-06-01 06:00:00 13.3 7 Este 16 Este 0 930.2 -0.3 51
2019-06-01 05:00:00 14.2 5 Este 15 Nordeste 0 930.2 -0.5 49
2019-06-01 04:00:00 15.1 7 Este 15 Este 0 930.2 -0.9 47
2019-06-01 03:00:00 16.8 5 Este 21 Este 0 930.5 -0.5 42
2019-06-01 02:00:00 17.2 8 Este 14 Nordeste 0 930.7 0.1 40
2019-06-01 01:00:00 17.2 5 Sudeste 8 Sudeste 0 931.1 1 41
2019-06-01 00:00:00 18.4 4 Sudeste 15 Sudeste 0 931 1.2 42
2019-05-31 23:00:00 21.9 5 Este 13 Nordeste 0 930.6 0.9 27
2019-05-31 22:00:00 24.1 5 Nordeste 15 Nordeste 0 930.1 0.1 21
2019-05-31 21:00:00 27 4 Norte 12 Noroeste 0 929.8 -0.3 13
2019-05-31 20:00:00 28.4 4 Este 12 Nordeste 0 929.7 -0.9 10
2019-05-31 19:00:00 29.5 5 Norte 18 Este 0 930 -1.1 10
2019-05-31 18:00:00 29.9 7 Nordeste 18 Nordeste 0 930.1 -1.5 11
2019-05-31 17:00:00 31 4 Noroeste 16 Norte 0 930.6 -1.5 10
2019-05-31 16:00:00 29.6 4 Norte 18 Norte 0 931.1 -1.5 12
2019-05-31 15:00:00 28.3 6 Norte 16 Norte 0 931.6 -1.2 13
2019-05-31 14:00:00 27.4 7 Este 18 Nordeste 0 932.1 -0.9 14
2019-05-31 13:00:00 26.5 8 Norte 19 Nordeste 0 932.6 -0.7 18
2019-05-31 12:00:00 25.3 9 Este 25 Este 0 932.8 -0.7 18
2019-05-31 11:00:00 23.3 6 Este 14 Este 0 933 -0.5 31
2019-05-31 10:00:00 18.9 6 Este 16 Este 0 933.3 -0.1 40
2019-05-31 09:00:00 14.9 6 Este 13 Nordeste 0 933.5 0.2 52
2019-05-31 08:00:00 11.5 5 Sudeste 10 Sudeste 0 933.5 0.1 61
2019-05-31 07:00:00 7.3 3 Este 8 Este 0 933.4 0 72
2019-05-31 06:00:00 7.7 4 Este 8 Este 0 933.3 -0.5 72
2019-05-31 05:00:00 7.6 3 Este 5 Sudeste 0 933.4 -0.6 67
2019-05-31 04:00:00 8.6 0 Calma 6 Este 0 933.4 -0.7 63
2019-05-31 03:00:00 9.5 2 Este 6 Este 0 933.8 -0.4 60
2019-05-31 02:00:00 10.7 2 Sudeste 4 Sudoeste 0 934 0 56
2019-05-31 01:00:00 13.2 0 Calma 8 Nordeste 0 934.1 0.9 53
2019-05-31 00:00:00 14.9 5 Norte 8 Norte 0 934.2 1.7 45
2019-05-30 23:00:00 17.5 0 Calma 8 Este 0 934 2 40
2019-05-30 22:00:00 21.5 4 Nordeste 23 Norte 0 933.2 1 26
2019-05-30 21:00:00 23.9 11 Norte 35 Norte 0 932.5 0.3 21
2019-05-30 20:00:00 25.5 15 Norte 33 Norte 0 932 -0.6 17
2019-05-30 19:00:00 26.7 13 Norte 27 Norte 0 932.2 -0.8 16
2019-05-30 18:00:00 27.9 7 Norte 23 Este 0 932.2 -1.4 15
2019-05-30 17:00:00 28.7 3 Sur 21 Noroeste 0 932.6 -1.4 17
2019-05-30 16:00:00 27.3 10 Norte 21 Norte 0 933 -1.5 17
2019-05-30 15:00:00 25.8 8 Este 21 Sudeste 0 933.6 -1.2 18
2019-05-30 14:00:00 24.9 5 Norte 13 Este 0 934 -1 22
2019-05-30 13:00:00 22.5 3 Norte 11 Nordeste 0 934.5 -0.8 33
2019-05-30 12:00:00 21.2 2 Noroeste 13 Noroeste 0 934.8 -0.7 40
2019-05-30 11:00:00 19.6 3 Norte 8 Norte 0 935 -0.3 37
2019-05-30 10:00:00 15.7 3 Nordeste 6 Norte 0 935.3 0.3 49
2019-05-30 09:00:00 12.2 0 Calma 6 Este 0 935.5 0.7 59
2019-05-30 08:00:00 8.2 0 Calma 5 Sudeste 0 935.3 0.7 73
2019-05-30 07:00:00 3.6 0 Calma 4 Oeste 0 935 0.4 78
2019-05-30 06:00:00 4.3 2 Sudeste 6 Este 0 934.8 0 79
2019-05-30 05:00:00 4.9 0 Calma 4 Sudoeste 0 934.6 -0.4 78
2019-05-30 04:00:00 5.6 2 Este 7 Sudoeste 0 934.6 -0.5 76
2019-05-30 03:00:00 6.6 0 Calma 3 Sudeste 0 934.8 -0.1 73
2019-05-30 02:00:00 7.5 0 Calma 5 Sudoeste 0 935 0.5 70
2019-05-30 01:00:00 9.2 0 Calma 6 Sudoeste 0 935.1 1.3 63
2019-05-30 00:00:00 11.8 3 Sudoeste 11 Norte 0 934.9 1.2 57
2019-05-29 23:00:00 14 4 Este 18 Nordeste 0 934.5 1.4 51
2019-05-29 22:00:00 15.1 6 Norte 25 Norte 0 933.8 0.8 48
2019-05-29 21:00:00 17.1 10 Norte 33 Norte 0 933.7 0.8 41
2019-05-29 20:00:00 18.2 16 Norte 38 Norte 0 933.1 0.1 36
2019-05-29 19:00:00 19.1 18 Norte 38 Norte 0 933 0 34
2019-05-29 18:00:00 20.3 15 Norte 35 Noroeste 0 932.9 -0.3 32
2019-05-29 17:00:00 20 14 Norte 32 Norte 0 933 -0.4 35
2019-05-29 16:00:00 19.6 14 Norte 38 Noroeste 0 933 -0.7 36
2019-05-29 15:00:00 18.6 13 Norte 30 Noroeste 0 933.2 -0.6 39
2019-05-29 14:00:00 18.1 15 Norte 34 Norte 0 933.4 -0.5 40
2019-05-29 13:00:00 17.1 18 Norte 42 Noroeste 0 933.7 -0.2 43
2019-05-29 12:00:00 15.9 14 Norte 35 Noroeste 0 933.8 0 44
2019-05-29 11:00:00 15 11 Norte 27 Nordeste 0 933.9 0.4 49
2019-05-29 10:00:00 14.5 8 Norte 30 Norte 0 933.9 0.9 50
2019-05-29 09:00:00 12.4 9 Norte 18 Norte 0 933.8 0.9 55
2019-05-29 08:00:00 9.1 2 Sudoeste 8 Sudoeste 0 933.5 0.6 66
2019-05-29 07:00:00 3.4 0 Calma 5 Sudoeste 0 933 0.1 77
2019-05-29 06:00:00 3.8 4 Sudoeste 6 Sudoeste 0 932.9 0.4 74
2019-05-29 05:00:00 4.8 0 Calma 8 Sudoeste 0 932.9 0.4 71
2019-05-29 04:00:00 6.3 3 Sudoeste 9 Este 0 932.9 0.5 68
2019-05-29 03:00:00 7.4 3 Nordeste 10 Este 0 932.5 0.4 67
2019-05-29 02:00:00 8.1 4 Este 24 Norte 0 932.5 0.8 63
2019-05-29 01:00:00 8.8 9 Norte 27 Nordeste 0 932.4 1.8 60
2019-05-29 00:00:00 9.7 5 Norte 26 Norte 0 932.1 2.1 55
2019-05-28 23:00:00 10.9 7 Norte 19 Nordeste 0 931.7 2.1 51
2019-05-28 22:00:00 12.6 8 Norte 20 Nordeste 0 930.6 1.3 46
2019-05-28 21:00:00 14.4 9 Norte 31 Norte 0 930 0.6 38
2019-05-28 20:00:00 15.7 15 Norte 31 Norte 0 929.6 0.5 36
2019-05-28 19:00:00 16.3 12 Norte 33 Norte 0 929.3 0.6 36
2019-05-28 18:00:00 17.4 11 Nordeste 38 Noroeste 0 929.4 0.8 33
2019-05-28 17:00:00 17.8 15 Norte 35 Noroeste 0 929.1 0.5 31
2019-05-28 16:00:00 17.7 15 Norte 38 Norte 0 928.7 0.4 32
2019-05-28 15:00:00 17 14 Norte 36 Noroeste 0 928.6 0.2 33
2019-05-28 14:00:00 17.3 18 Norte 37 Norte 0 928.6 0.2 34
2019-05-28 13:00:00 17.2 12 Norte 34 Norte 0 928.3 -0.1 33
2019-05-28 12:00:00 15.8 10 Norte 26 Norte 0 928.4 0.5 34
2019-05-28 11:00:00 14.1 14 Norte 32 Norte 0 928.4 0.8 41
2019-05-28 10:00:00 13.4 11 Norte 27 Norte 0 928.4 1.4 43
2019-05-28 09:00:00 11.7 10 Norte 23 Norte 0 927.9 1.4 52
2019-05-28 08:00:00 10.2 4 Norte 13 Nordeste 0 927.6 1.5 60
2019-05-28 07:00:00 6.3 3 Sur 10 Noroeste 0 927 0.6 73
2019-05-28 06:00:00 6.4 3 Sudoeste 8 Sudoeste 0 926.5 0.2 73
2019-05-28 05:00:00 7.5 3 Sudoeste 8 Norte 0 926.1 -0.4 69
2019-05-28 04:00:00 8.3 3 Norte 12 Norte 0 926.4 -0.1 68
2019-05-28 03:00:00 8.9 2 Noroeste 11 Nordeste 0 926.3 -0.1 68
2019-05-28 02:00:00 9.6 3 Norte 14 Norte 0 926.5 0.6 69
2019-05-28 01:00:00 11 3 Norte 18 Norte 0 926.5 1.4 65
2019-05-28 00:00:00 12.3 7 Norte 18 Norte 0 926.4 1.6 63
2019-05-27 23:00:00 13.9 5 Nordeste 21 Norte 0 925.9 1.5 58
2019-05-27 22:00:00 15.7 8 Nordeste 29 Nordeste 0 925.1 0.8 56
2019-05-27 21:00:00 18.1 11 Norte 33 Norte 0 924.8 0.6 46
2019-05-27 20:00:00 20 10 Norte 30 Norte 0 924.4 -0.3 38
2019-05-27 19:00:00 20.9 13 Norte 30 Noroeste 0 924.3 -0.5 35
2019-05-27 18:00:00 22.2 8 Norte 37 Noroeste 0 924.2 -1 33
2019-05-27 17:00:00 22.3 17 Norte 34 Noroeste 0 924.7 -0.7 33
2019-05-27 16:00:00 22.5 12 Norte 32 Norte 0 924.8 -0.9 35
2019-05-27 15:00:00 21.6 15 Norte 44 Norte 0 925.2 -0.8 35
2019-05-27 14:00:00 21.8 14 Norte 37 Norte 0 925.4 -0.8 35
2019-05-27 13:00:00 21.1 13 Noroeste 32 Noroeste 0 925.7 -0.8 35
2019-05-27 12:00:00 20.3 9 Noroeste 22 Norte 0 926 -0.4 39
2019-05-27 11:00:00 18.9 7 Norte 17 Norte 0 926.2 -0.3 46
2019-05-27 10:00:00 16.1 4 Oeste 14 Oeste 0 926.5 0.1 64
2019-05-27 09:00:00 14.9 4 Oeste 12 Oeste 0 926.4 0.2 52
2019-05-27 08:00:00 10.1 3 Oeste 10 Oeste 0 926.5 0.1 72
2019-05-27 07:00:00 6.9 2 Sudoeste 7 Sudoeste 0 926.4 -0.5 81
2019-05-27 06:00:00 7.1 3 Sudoeste 6 Sudoeste 0 926.2 -0.9 80
2019-05-27 05:00:00 7.6 0 Calma 5 Oeste 0 926.4 -1.3 78
2019-05-27 04:00:00 8.5 2 Sudoeste 13 Oeste 0 926.9 -1.1 76
2019-05-27 03:00:00 9.2 4 Sudoeste 10 Oeste 0 927.1 -1 73
2019-05-27 02:00:00 9.5 4 Sudoeste 11 Oeste 0 927.7 -0.3 72
2019-05-27 01:00:00 10.5 2 Sudoeste 6 Sudoeste 0 928 0.1 69
2019-05-27 00:00:00 12.3 4 Sudoeste 9 Sudoeste 0 928.1 0.3 62
2019-05-26 23:00:00 14.4 3 Noroeste 16 Noroeste 0 928 0.1 58
2019-05-26 22:00:00 16 6 Noroeste 18 Noroeste 0 927.9 -0.3 51
2019-05-26 21:00:00 17.9 6 Norte 22 Norte 0 927.8 -0.5 46
2019-05-26 20:00:00 19 10 Norte 30 Norte 0 927.9 -0.7 42
2019-05-26 19:00:00 19.6 15 Norte 36 Norte 0 928.2 -0.8 40
2019-05-26 18:00:00 20.4 14 Norte 40 Nordeste 0 928.3 -0.9 38
2019-05-26 17:00:00 20.4 14 Norte 42 Noroeste 0 928.6 -1.1 37
2019-05-26 16:00:00 19.8 21 Norte 45 Noroeste 0 929 -1 39
2019-05-26 15:00:00 19.1 17 Norte 39 Norte 0 929.2 -1.1 44
2019-05-26 14:00:00 19.1 16 Norte 32 Oeste 0 929.7 -0.8 41
2019-05-26 13:00:00 17.8 14 Noroeste 32 Noroeste 0 930 -0.8 41
2019-05-26 12:00:00 17.1 15 Noroeste 34 Noroeste 0 930.3 -0.7 43
2019-05-26 11:00:00 16 9 Norte 31 Noroeste 0 930.5 -0.4 44
2019-05-26 10:00:00 14.8 9 Norte 25 Norte 0 930.8 -0.1 49
2019-05-26 09:00:00 13.4 10 Norte 26 Norte 0 931 0.3 54
2019-05-26 08:00:00 10.9 3 Noroeste 7 Noroeste 0 930.9 0.3 64
2019-05-26 07:00:00 4.7 3 Oeste 7 Sudoeste 0 930.9 0.2 78
2019-05-26 06:00:00 5.4 3 Sudoeste 6 Sudoeste 0 930.7 -0.2 74
2019-05-26 05:00:00 6.8 0 Calma 9 Norte 0 930.6 -0.5 73
2019-05-26 04:00:00 7.5 5 Nordeste 14 Noroeste 0 930.7 -1 74
2019-05-26 03:00:00 8.4 2 Sudeste 16 Noroeste 0 930.9 -0.5 71
2019-05-26 02:00:00 8.9 7 Norte 16 Norte 0 931.1 0 67
2019-05-26 01:00:00 9.5 4 Norte 13 Norte 0 931.7 1.1 63
2019-05-26 00:00:00 10.5 4 Norte 21 Norte 0 931.4 1.3 58
2019-05-25 23:00:00 11.6 10 Norte 25 Norte 0 931.1 1.2 55
2019-05-25 22:00:00 12.6 11 Norte 32 Nordeste 0 930.6 0.9 52
2019-05-25 21:00:00 14.4 11 Norte 30 Noroeste 0 930.1 0.4 48
2019-05-25 20:00:00 15.9 13 Norte 37 Noroeste 0 929.9 0.5 43
2019-05-25 19:00:00 17.2 12 Norte 35 Norte 0 929.7 0.1 40
2019-05-25 18:00:00 17.8 15 Norte 38 Norte 0 929.7 -0.4 40
2019-05-25 17:00:00 19.3 10 Norte 24 Noroeste 0 929.4 -1.1 33
2019-05-25 16:00:00 19 11 Norte 27 Norte 0 929.6 -1.3 34
2019-05-25 15:00:00 17.9 9 Norte 29 Norte 0 930.1 -0.9 37
2019-05-25 14:00:00 16.8 15 Norte 32 Noroeste 0 930.5 -0.7 44
2019-05-25 13:00:00 16.8 13 Norte 35 Norte 0 930.9 0 43
2019-05-25 12:00:00 15.3 12 Norte 33 Norte 0 931 0.3 49
2019-05-25 11:00:00 14.3 11 Nordeste 29 Norte 0 931.2 1 48
2019-05-25 10:00:00 11.9 13 Norte 36 Noroeste 0 930.9 1 58
2019-05-25 09:00:00 12.1 13 Norte 30 Noroeste 0 930.7 1.1 57
2019-05-25 08:00:00 10.2 4 Noroeste 20 Noroeste 0 930.2 0.8 70
2019-05-25 07:00:00 9.1 7 Noroeste 21 Noroeste 0 929.9 0.2 72
2019-05-25 06:00:00 9 8 Noroeste 21 Norte 0 929.6 -0.2 72
2019-05-25 05:00:00 9.3 9 Norte 19 Norte 0 929.4 -0.5 72
2019-05-25 04:00:00 9.5 2 Oeste 18 Noroeste 0 929.7 0 72
2019-05-25 03:00:00 9.9 9 Norte 21 Norte 0 929.8 0.2 70
2019-05-25 02:00:00 9.4 9 Norte 22 Norte 0 929.9 0.6 73
2019-05-25 01:00:00 9.7 8 Norte 23 Norte 0 929.7 1.2 70
2019-05-25 00:00:00 10.5 10 Norte 27 Nordeste 0 929.6 1.4 68
2019-05-24 23:00:00 10.8 4 Nordeste 23 Nordeste 0 929.3 1.5 65
2019-05-24 22:00:00 11.5 10 Norte 31 Norte 0 928.5 1 62
2019-05-24 21:00:00 12.7 12 Nordeste 38 Nordeste 0 928.2 0.5 56
2019-05-24 20:00:00 14.2 14 Norte 42 Nordeste 0 927.8 0.4 50
2019-05-24 19:00:00 15.5 15 Nordeste 40 Nordeste 0 927.5 0.2 40
2019-05-24 18:00:00 16.2 16 Norte 41 Norte 0 927.7 0.5 40
2019-05-24 17:00:00 16.9 14 Nordeste 44 Norte 0 927.4 0.3 38
2019-05-24 16:00:00 17.3 18 Norte 45 Noroeste 0 927.3 0 39
2019-05-24 15:00:00 17.4 21 Norte 41 Norte 0 927.2 0 40
2019-05-24 14:00:00 17.4 18 Norte 38 Noroeste 0 927.1 -0.1 39
2019-05-24 13:00:00 17.4 12 Norte 39 Este 0 927.3 0 42
2019-05-24 12:00:00 16.4 14 Norte 35 Noroeste 0 927.2 0.2 48
2019-05-24 11:00:00 15.9 13 Norte 32 Norte 0 927.2 0.7 51
2019-05-24 10:00:00 14.9 11 Norte 24 Norte 0 927.3 1.8 56
2019-05-24 09:00:00 11.8 10 Norte 24 Noroeste 0 927 1.6 67
2019-05-24 08:00:00 11.3 9 Norte 20 Norte 0 926.5 1.1 69
2019-05-24 07:00:00 12.5 3 Nordeste 15 Norte 0 925.5 -0.1 64
2019-05-24 06:00:00 12.4 3 Nordeste 15 Norte 0 925.4 -0.4 63
2019-05-24 05:00:00 12.6 5 Nordeste 21 Norte 0 925.4 -0.7 64
2019-05-24 04:00:00 12.3 9 Norte 24 Nordeste 0 925.6 -0.2 65
2019-05-24 03:00:00 12 9 Norte 25 Noroeste 0 925.8 -0.1 71
2019-05-24 02:00:00 13.3 3 Oeste 14 Noroeste 0 926.1 0.8 71
2019-05-24 01:00:00 14.4 4 Sudoeste 9 Sudoeste 0 925.8 0.8 66
2019-05-24 00:00:00 15.4 3 Noroeste 15 Noroeste 0 925.9 1.5 62
2019-05-23 23:00:00 17.8 3 Noroeste 8 Este 0 925.3 1 57
2019-05-23 22:00:00 19.6 4 Nordeste 15 Norte 0 925 0.9 50
2019-05-23 21:00:00 21.8 3 Noroeste 19 Noroeste 0 924.4 0.3 36
2019-05-23 20:00:00 22.9 10 Noroeste 29 Noroeste 0 924.3 -0.3 32
2019-05-23 19:00:00 24.2 14 Norte 28 Noroeste 0 924.1 -1.1 28
2019-05-23 18:00:00 28 10 Oeste 33 Oeste 0 924.1 -2 13
2019-05-23 17:00:00 27.4 9 Oeste 32 Oeste 0 924.6 -2.1 17
2019-05-23 16:00:00 27.2 9 Oeste 27 Oeste 0 925.2 -2.1 18
2019-05-23 15:00:00 24.2 4 Oeste 20 Oeste 0 926.1 -1.4 31
2019-05-23 14:00:00 24.4 4 Oeste 17 Oeste 0 926.7 -0.8 30
2019-05-23 13:00:00 23.4 5 Sudoeste 18 Oeste 0 927.3 -0.4 33
2019-05-23 12:00:00 21.9 3 Sudoeste 15 Sudoeste 0 927.5 -0.1 37
2019-05-23 11:00:00 20.4 5 Sudoeste 16 Sudoeste 0 927.5 0 41
2019-05-23 10:00:00 17.2 3 Este 8 Sudeste 0 927.7 0.5 48
2019-05-23 09:00:00 14.9 4 Este 10 Este 0 927.6 0.6 56
2019-05-23 08:00:00 11.3 3 Sur 6 Este 0 927.5 0.4 71
2019-05-23 07:00:00 10 4 Este 9 Este 0 927.2 0.3 72
2019-05-23 06:00:00 9.7 3 Sudeste 17 Sudoeste 0 927 0 73
2019-05-23 05:00:00 11 4 Sudoeste 9 Sudeste 0 927.1 -0.1 66
2019-05-23 04:00:00 10.8 6 Este 11 Sudeste 0 926.9 -0.5 65
2019-05-23 03:00:00 10.9 6 Este 11 Sudeste 0 927 -0.2 64
2019-05-23 02:00:00 11.4 5 Este 9 Sudeste 0 927.2 0.1 65
2019-05-23 01:00:00 11.2 3 Este 6 Sudeste 0 927.4 0.9 66
2019-05-23 00:00:00 12.7 0 Calma 3 Este 0 927.2 0.9 60
2019-05-22 23:00:00 15.4 0 Calma 4 Nordeste 0 927.1 1.1 46
2019-05-22 22:00:00 19.1 0 Calma 10 Norte 0 926.5 0.5 37
2019-05-22 21:00:00 22.3 5 Nordeste 17 Norte 0 926.3 0.2 25
2019-05-22 20:00:00 24 2 Oeste 16 Noroeste 0 926 -0.3 22
2019-05-22 19:00:00 24.8 3 Oeste 19 Oeste 0 926 -0.7 20
2019-05-22 18:00:00 25.9 4 Sudoeste 19 Oeste 0 926.1 -1 17
2019-05-22 17:00:00 27.1 4 Oeste 22 Oeste 0 926.3 -1.3 15
2019-05-22 16:00:00 26.1 6 Sudoeste 23 Sudoeste 0 926.7 -1 17
2019-05-22 15:00:00 24.7 6 Sudoeste 26 Sudoeste 0 927.1 -0.9 20
2019-05-22 14:00:00 24.3 7 Sudoeste 24 Sudoeste 0 927.6 -0.4 20
2019-05-22 13:00:00 23.8 4 Sudoeste 18 Norte 0 927.7 -0.4 23
2019-05-22 12:00:00 21.7 3 Sudoeste 9 Este 0 928 0.1 27
2019-05-22 11:00:00 17.6 4 Este 10 Este 0 928 0.3 44
2019-05-22 10:00:00 15.5 5 Este 13 Sudeste 0 928.1 0.9 47
2019-05-22 09:00:00 12.4 8 Este 17 Este 0 927.9 0.6 56
2019-05-22 08:00:00 10.3 5 Este 12 Este 0 927.7 0.4 64
2019-05-22 07:00:00 6.9 6 Este 12 Este 0 927.2 0.1 75
2019-05-22 06:00:00 6.8 3 Este 6 Este 0 927.3 0.2 74
2019-05-22 05:00:00 7.5 0 Calma 8 Nordeste 0 927.3 0 73
2019-05-22 04:00:00 8.7 5 Este 8 Este 0 927.1 -0.1 70
2019-05-22 03:00:00 9.4 3 Este 10 Este 0 927.1 -0.2 67
2019-05-22 02:00:00 9 2 Este 8 Este 0 927.3 0.4 68
2019-05-22 01:00:00 10 3 Sudeste 7 Norte 0 927.2 1.1 63
2019-05-22 00:00:00 11.9 2 Noroeste 12 Sudeste 0 927.3 1.9 58
2019-05-21 23:00:00 14.1 4 Este 8 Nordeste 0 926.9 2.2 49
2019-05-21 22:00:00 16.3 4 Nordeste 20 Norte 0 926.1 1.6 39
2019-05-21 21:00:00 18.4 7 Norte 30 Nordeste 0 925.4 0.8 29
2019-05-21 20:00:00 19.8 12 Norte 24 Nordeste 0 924.7 -0.1 26
2019-05-21 19:00:00 21.1 3 Noroeste 17 Nordeste 0 924.5 -0.2 25
2019-05-21 18:00:00 21.7 9 Norte 19 Nordeste 0 924.6 -0.4 24
2019-05-21 17:00:00 20.9 5 Norte 19 Norte 0 924.8 -0.5 25
2019-05-21 16:00:00 22.2 3 Sudoeste 22 Norte 0 924.7 -0.8 22
2019-05-21 15:00:00 21.1 5 Noroeste 17 Noroeste 0 925 -0.5 26
2019-05-21 14:00:00 20.4 7 Sudeste 21 Este 0 925.3 -0.3 25
2019-05-21 13:00:00 20.3 5 Este 17 Este 0 925.5 -0.2 28
2019-05-21 12:00:00 18.6 7 Este 17 Este 0 925.5 0 32
2019-05-21 11:00:00 16.7 6 Este 20 Sudeste 0 925.6 0.6 40
2019-05-21 10:00:00 14.1 5 Este 17 Sudeste 0 925.7 1.2 51
2019-05-21 09:00:00 10.5 8 Este 18 Este 0 925.5 1.2 62
2019-05-21 08:00:00 8.7 7 Este 16 Este 0 925 0.8 69
2019-05-21 07:00:00 7.4 8 Este 14 Este 0 924.5 0.4 75
2019-05-21 06:00:00 7.9 5 Este 12 Este 0 924.3 0.3 72
2019-05-21 05:00:00 8.6 5 Este 12 Este 0 924.2 0 68
2019-05-21 04:00:00 8.8 6 Este 12 Este 0 924.1 -0.1 68
2019-05-21 03:00:00 7.1 2 Este 5 Este 0 924 0.1 79
2019-05-21 02:00:00 7.7 0 Calma 2 Este 0 924.2 0.8 74
2019-05-21 01:00:00 9.2 0 Calma 3 Sudoeste 0 924.2 1.6 62
2019-05-21 00:00:00 11.3 0 Calma 9 Nordeste 0 923.9 1.7 55